createdAt,value
2023-10-03T00:00:25.337Z,99620.15
2023-10-03T00:05:52.270Z,99611.90
2023-10-03T00:10:56.881Z,99609.57
2023-10-03T00:16:04.556Z,99599.39
2023-10-03T00:21:08.427Z,99598.14
2023-10-03T00:26:18.339Z,99602.64
2023-10-03T00:31:22.980Z,99599.41
2023-10-03T00:36:27.682Z,99597.00
2023-10-03T00:41:31.732Z,99590.09
2023-10-03T00:46:35.668Z,99577.50
2023-10-03T00:51:41.723Z,99570.52
2023-10-03T00:56:48.210Z,99559.91
2023-10-03T01:01:58.683Z,99551.05
2023-10-03T01:07:03.528Z,99551.31
2023-10-03T01:12:08.020Z,99540.41
2023-10-03T01:17:15.016Z,99537.85
2023-10-03T01:22:19.796Z,99534.41
2023-10-03T01:27:24.320Z,99530.14
2023-10-03T01:32:32.934Z,99528.39
2023-10-03T01:37:38.973Z,99527.96
2023-10-03T01:42:46.144Z,99525.15
2023-10-03T01:47:52.268Z,99523.37
2023-10-03T01:52:56.601Z,99523.38
2023-10-03T01:58:00.525Z,99519.65
2023-10-03T02:03:07.152Z,99514.72
2023-10-03T02:08:16.348Z,99514.65
2023-10-03T02:13:22.339Z,99504.07
2023-10-03T02:18:27.581Z,99495.50
2023-10-03T02:23:33.401Z,99496.77
2023-10-03T02:28:37.756Z,99497.00
2023-10-03T02:33:44.363Z,99493.88
2023-10-03T02:38:48.933Z,99485.30
2023-10-03T02:43:53.490Z,99484.46
2023-10-03T02:48:57.644Z,99487.19
2023-10-03T02:54:03.012Z,99485.40
2023-10-03T02:59:07.495Z,99480.08
2023-10-03T03:04:12.908Z,99474.22
2023-10-03T03:09:24.427Z,99471.77
2023-10-03T03:14:28.830Z,99466.90
2023-10-03T03:19:33.862Z,99467.44
2023-10-03T03:24:38.118Z,99460.17
2023-10-03T03:29:58.745Z,99460.31
2023-10-03T03:35:03.487Z,99466.20
2023-10-03T03:40:19.867Z,99459.73
2023-10-03T03:45:23.646Z,99460.80
2023-10-03T03:50:32.785Z,99458.71
2023-10-03T03:55:39.012Z,99455.01
2023-10-03T04:00:48.487Z,99451.59
2023-10-03T04:05:52.543Z,99449.25
2023-10-03T04:10:56.860Z,99438.97
2023-10-03T04:16:02.405Z,99432.59
2023-10-03T04:21:06.787Z,99432.38
2023-10-03T04:26:11.454Z,99429.73
2023-10-03T04:31:15.654Z,99433.22
2023-10-03T04:36:25.277Z,99431.48
2023-10-03T04:41:30.013Z,99421.92
2023-10-03T04:46:34.430Z,99425.67
2023-10-03T04:51:38.580Z,99424.56
2023-10-03T04:56:44.918Z,99421.88
2023-10-03T05:01:48.621Z,99419.40
2023-10-03T05:06:52.584Z,99414.80
2023-10-03T05:11:56.535Z,99418.05
2023-10-03T05:17:02.598Z,99407.91
2023-10-03T05:22:09.724Z,99413.87
2023-10-03T05:27:13.872Z,99417.14
2023-10-03T05:32:18.976Z,99412.02
2023-10-03T05:37:23.377Z,99410.39
2023-10-03T05:42:27.569Z,99405.46
2023-10-03T05:47:31.831Z,99402.73
2023-10-03T05:52:36.124Z,99403.23
2023-10-03T05:57:42.308Z,99405.30
2023-10-03T06:02:48.283Z,99402.04
2023-10-03T06:07:52.470Z,99402.21
2023-10-03T06:12:56.504Z,99400.09
2023-10-03T06:23:34.955Z,99400.27
2023-10-03T06:28:42.742Z,99403.75
2023-10-03T06:33:51.440Z,99407.40
2023-10-03T06:39:00.616Z,99410.44
2023-10-03T06:44:08.938Z,99407.78
2023-10-03T06:49:18.868Z,99404.11
2023-10-03T06:54:27.311Z,99397.04
2023-10-03T06:59:35.205Z,99387.66
2023-10-03T07:04:43.121Z,99386.65
2023-10-03T07:09:51.662Z,99388.02
2023-10-03T07:14:59.864Z,99386.50
2023-10-03T07:20:10.522Z,99388.08
2023-10-03T07:25:18.240Z,99390.08
2023-10-03T07:30:26.577Z,99396.36
2023-10-03T07:35:37.309Z,99390.82
2023-10-03T07:40:46.143Z,99388.36
2023-10-03T07:45:54.279Z,99381.88
2023-10-03T07:51:07.069Z,99381.67
2023-10-03T07:56:27.425Z,99376.98
2023-10-03T08:06:51.154Z,99375.69
2023-10-03T08:12:00.039Z,99362.98
2023-10-03T08:17:08.402Z,99356.30
2023-10-03T08:22:16.061Z,99345.45
2023-10-03T08:27:23.616Z,99343.83
2023-10-03T08:32:31.027Z,99334.92
2023-10-03T08:37:40.543Z,99325.92
2023-10-03T08:42:54.324Z,99320.27
2023-10-03T08:48:07.777Z,99314.13
2023-10-03T08:53:18.790Z,99306.23
2023-10-03T08:58:28.095Z,99300.79
2023-10-03T09:03:49.457Z,99293.23
2023-10-03T09:09:10.128Z,99288.50
2023-10-03T09:14:21.638Z,99285.06
2023-10-03T09:19:46.304Z,99280.40
2023-10-03T09:24:57.523Z,99271.28
2023-10-03T09:30:11.984Z,99270.59
2023-10-03T09:35:19.785Z,99267.46
2023-10-03T09:40:29.180Z,99259.42
2023-10-03T09:45:38.462Z,99254.91
2023-10-03T09:50:53.532Z,99249.75
2023-10-03T09:56:02.832Z,99243.77
2023-10-03T10:01:13.551Z,99239.58
2023-10-03T10:06:39.771Z,99239.63
2023-10-03T10:12:16.391Z,99227.88
2023-10-03T10:17:24.244Z,99226.02
2023-10-03T10:23:04.689Z,99220.11
2023-10-03T10:28:15.618Z,99215.85
2023-10-03T10:33:29.437Z,99205.93
2023-10-03T10:38:54.804Z,99202.80
2023-10-03T10:44:15.324Z,99192.23
2023-10-03T10:50:17.502Z,99187.79
2023-10-03T10:55:28.959Z,99177.39
2023-10-03T11:00:37.227Z,99173.37
2023-10-03T11:05:50.327Z,99170.13
2023-10-03T11:10:58.508Z,99166.64
2023-10-03T11:16:10.008Z,99160.69
2023-10-03T11:21:18.104Z,99149.11
2023-10-03T11:26:25.963Z,99146.09
2023-10-03T11:31:39.194Z,99145.95
2023-10-03T11:36:48.144Z,99134.22
2023-10-03T11:41:55.790Z,99129.30
2023-10-03T11:47:03.799Z,99118.26
2023-10-03T11:52:12.002Z,99110.95
2023-10-03T11:57:20.160Z,99109.05
2023-10-03T12:02:28.342Z,99103.74
2023-10-03T12:07:36.622Z,99090.98
2023-10-03T12:12:45.101Z,99085.63
2023-10-03T12:17:54.101Z,99072.96
2023-10-03T12:23:06.197Z,99064.11
2023-10-03T12:28:18.010Z,99054.55
2023-10-03T12:33:26.368Z,99043.67
2023-10-03T12:38:34.992Z,99040.66
2023-10-03T12:43:48.106Z,99042.27
2023-10-03T12:48:56.578Z,99043.88
2023-10-03T12:54:06.140Z,99031.61
2023-10-03T12:59:14.684Z,99020.76
2023-10-03T13:04:26.385Z,99015.38
2023-10-03T13:09:36.550Z,99011.80
2023-10-03T13:14:44.407Z,99006.69
2023-10-03T13:19:52.517Z,99004.20
2023-10-03T13:25:00.640Z,99001.85
2023-10-03T13:30:11.830Z,98999.83
2023-10-03T13:35:22.366Z,98997.80
2023-10-03T13:40:30.681Z,98990.19
2023-10-03T13:45:38.686Z,98988.67
2023-10-03T13:50:48.934Z,98985.00
2023-10-03T13:55:59.789Z,98989.71
2023-10-03T14:01:13.611Z,98994.38
2023-10-03T14:06:22.283Z,98986.67
2023-10-03T14:11:30.032Z,98979.75
2023-10-03T14:16:37.816Z,98970.69
2023-10-03T14:21:47.135Z,98969.30
2023-10-03T14:26:54.769Z,98967.64
2023-10-03T14:32:03.211Z,98965.33
2023-10-03T14:37:11.032Z,98968.70
2023-10-03T14:42:18.588Z,98967.37
2023-10-03T14:47:29.474Z,98961.63
2023-10-03T14:52:37.495Z,98957.71
2023-10-03T14:57:45.898Z,98955.98
2023-10-03T15:02:53.898Z,98958.56
2023-10-03T15:08:03.251Z,98959.27
2023-10-03T15:13:10.529Z,98953.99
2023-10-03T15:18:18.442Z,98951.94
2023-10-03T15:23:27.577Z,98954.36
2023-10-03T15:28:37.383Z,98943.59
2023-10-03T15:33:45.370Z,98940.33
2023-10-03T15:38:53.000Z,98937.99
2023-10-03T15:44:00.932Z,98934.98
2023-10-03T15:49:08.864Z,98932.23
2023-10-03T15:54:16.730Z,98928.88
2023-10-03T15:59:25.596Z,98934.84
2023-10-03T16:04:33.931Z,98930.27
2023-10-03T16:09:45.019Z,98930.08
2023-10-03T16:14:53.083Z,98939.52
2023-10-03T16:23:24.071Z,98936.34
2023-10-03T16:28:32.746Z,98938.21
2023-10-03T16:33:40.291Z,98942.64
2023-10-03T16:38:48.409Z,98945.77
2023-10-03T16:43:56.967Z,98946.14
2023-10-03T16:49:05.143Z,98942.69
2023-10-03T16:54:13.006Z,98936.57
2023-10-03T16:59:20.808Z,98936.42
2023-10-03T17:04:29.045Z,98935.23
2023-10-03T17:09:37.363Z,98934.80
2023-10-03T17:14:45.985Z,98932.07
2023-10-03T17:19:53.730Z,98927.80
2023-10-03T17:25:02.835Z,98928.52
2023-10-03T17:40:00.810Z,98922.64
2023-10-03T17:45:11.377Z,98923.16
2023-10-03T17:50:20.258Z,98917.65
2023-10-03T17:55:28.699Z,98913.94
2023-10-03T18:00:36.276Z,98917.16
2023-10-03T18:05:44.223Z,98912.98
2023-10-03T18:10:53.515Z,98910.02
2023-10-03T18:16:01.995Z,98907.27
2023-10-03T18:21:11.818Z,98908.95
2023-10-03T18:26:19.754Z,98909.25
2023-10-03T18:31:27.765Z,98905.86
2023-10-03T18:36:35.770Z,98903.19
2023-10-03T18:41:43.785Z,98909.12
2023-10-03T18:46:51.721Z,98903.77
2023-10-03T18:51:59.516Z,98900.34
2023-10-03T18:57:07.632Z,98900.20
2023-10-03T19:02:15.731Z,98900.02
2023-10-03T19:07:23.466Z,98896.89
2023-10-03T19:12:32.019Z,98899.66
2023-10-03T19:17:40.228Z,98902.77
2023-10-03T19:22:48.054Z,98899.57
2023-10-03T19:27:56.993Z,98903.31
2023-10-03T19:33:05.101Z,98900.42
2023-10-03T19:38:12.741Z,98899.30
2023-10-03T19:43:21.161Z,98889.50
2023-10-03T19:48:28.682Z,98887.34
2023-10-03T19:53:36.296Z,98878.91
2023-10-03T19:58:43.807Z,98876.73
2023-10-03T20:03:52.270Z,98881.27
2023-10-03T20:08:59.772Z,98867.06
2023-10-03T20:14:09.734Z,98860.00
2023-10-03T20:23:28.172Z,98858.45
2023-10-03T20:28:36.536Z,98861.58
2023-10-03T20:33:44.715Z,98858.27
2023-10-03T20:38:53.997Z,98856.64
2023-10-03T20:44:02.081Z,98858.33
2023-10-03T20:49:09.957Z,98870.32
2023-10-03T20:54:17.753Z,98873.78
2023-10-03T20:59:25.389Z,98873.52
2023-10-03T21:04:34.561Z,98878.89
2023-10-03T21:09:42.959Z,98883.14
2023-10-03T21:14:51.266Z,98893.56
2023-10-03T21:19:59.745Z,98895.73
2023-10-03T21:25:11.115Z,98896.19
2023-10-03T21:30:19.835Z,98893.24
2023-10-03T21:35:28.711Z,98896.10
2023-10-03T21:50:21.159Z,98895.89
2023-10-03T21:55:29.617Z,98894.52
2023-10-03T22:00:40.278Z,98896.23
2023-10-03T22:05:48.263Z,98887.63
2023-10-03T22:10:57.000Z,98895.96
2023-10-03T22:23:24.706Z,98917.48
2023-10-03T22:28:33.258Z,98927.25
2023-10-03T22:33:41.384Z,98932.11
2023-10-03T22:38:49.784Z,98937.18
2023-10-03T22:43:57.426Z,98958.15
2023-10-03T22:49:06.151Z,98989.19
2023-10-03T22:54:13.908Z,99000.42
2023-10-03T22:59:21.690Z,99015.23
2023-10-03T23:04:29.376Z,99048.54
2023-10-03T23:09:37.795Z,99063.33
2023-10-03T23:14:46.151Z,99080.34
2023-10-03T23:19:54.655Z,99092.25
2023-10-03T23:25:02.496Z,99123.72
2023-10-03T23:30:13.679Z,99142.34
2023-10-03T23:35:23.230Z,99184.73
2023-10-03T23:40:31.604Z,99220.08
2023-10-03T23:45:42.934Z,99217.04
2023-10-03T23:50:50.585Z,99230.73
2023-10-03T23:56:00.192Z,99230.35
